createdAt,value
2023-07-23T00:01:24.547Z,14.90
2023-07-23T00:03:51.305Z,15.01
2023-07-23T00:06:18.310Z,14.84
2023-07-23T00:08:44.962Z,14.80
2023-07-23T00:11:11.610Z,14.97
2023-07-23T00:13:38.453Z,15.19
2023-07-23T00:16:05.777Z,15.26
2023-07-23T00:18:32.322Z,15.26
2023-07-23T00:20:58.902Z,15.07
2023-07-23T00:23:25.555Z,15.10
2023-07-23T00:25:52.167Z,15.14
2023-07-23T00:28:18.765Z,15.10
2023-07-23T00:30:45.333Z,15.02
2023-07-23T00:33:12.124Z,14.89
2023-07-23T00:35:39.321Z,14.89
2023-07-23T00:38:05.909Z,14.80
2023-07-23T00:40:32.562Z,14.94
2023-07-23T00:42:59.101Z,15.02
2023-07-23T00:45:25.900Z,15.04
2023-07-23T00:47:52.611Z,15.07
2023-07-23T00:50:19.819Z,14.98
2023-07-23T00:52:46.523Z,14.91
2023-07-23T00:55:13.182Z,14.91
2023-07-23T00:57:39.936Z,14.84
2023-07-23T01:00:09.076Z,14.74
2023-07-23T01:02:35.709Z,14.79
2023-07-23T01:05:03.650Z,14.74
2023-07-23T01:07:32.330Z,14.71
2023-07-23T01:10:00.375Z,14.86
2023-07-23T01:12:28.141Z,14.85
2023-07-23T01:14:54.775Z,14.93
2023-07-23T01:17:21.953Z,14.87
2023-07-23T01:20:00.743Z,14.92
2023-07-23T01:22:27.297Z,14.82
2023-07-23T01:24:53.889Z,14.75
2023-07-23T01:27:20.477Z,14.77
2023-07-23T01:29:47.127Z,14.83
2023-07-23T01:32:13.644Z,14.82
2023-07-23T01:34:40.248Z,14.89
2023-07-23T01:37:07.051Z,14.94
2023-07-23T01:39:33.894Z,14.96
2023-07-23T01:42:01.068Z,15.04
2023-07-23T01:44:27.698Z,14.94
2023-07-23T01:46:54.427Z,14.94
2023-07-23T01:49:21.194Z,14.99
2023-07-23T01:51:47.769Z,15.06
2023-07-23T01:54:14.315Z,14.96
2023-07-23T01:56:40.909Z,14.72
2023-07-23T01:59:08.490Z,14.66
2023-07-23T02:01:35.325Z,15.09
2023-07-23T02:04:01.896Z,15.16
2023-07-23T02:06:28.523Z,15.37
2023-07-23T02:08:55.179Z,15.39
2023-07-23T02:11:21.726Z,15.44
2023-07-23T02:13:48.367Z,15.48
2023-07-23T02:16:21.895Z,15.47
2023-07-23T02:18:49.057Z,15.51
2023-07-23T02:21:15.793Z,15.52
2023-07-23T02:23:45.961Z,15.72
2023-07-23T02:26:12.783Z,15.87
2023-07-23T02:28:44.687Z,15.79
2023-07-23T02:31:11.684Z,15.87
2023-07-23T02:33:38.280Z,15.82
2023-07-23T02:36:05.139Z,15.96
2023-07-23T02:38:31.811Z,15.81
2023-07-23T02:40:59.934Z,15.75
2023-07-23T02:43:26.541Z,15.75
2023-07-23T02:45:53.146Z,15.79
2023-07-23T02:48:19.801Z,15.77
2023-07-23T02:50:46.351Z,15.94
2023-07-23T02:53:12.952Z,15.80
2023-07-23T02:55:39.574Z,15.89
2023-07-23T02:58:06.181Z,15.81
2023-07-23T03:00:32.751Z,15.91
2023-07-23T03:02:59.449Z,15.94
2023-07-23T03:05:26.391Z,15.95
2023-07-23T03:07:54.017Z,16.20
2023-07-23T03:10:20.932Z,16.12
2023-07-23T03:12:47.545Z,16.10
2023-07-23T03:15:14.176Z,16.22
2023-07-23T03:17:40.841Z,16.17
2023-07-23T03:20:09.801Z,16.26
2023-07-23T03:22:36.276Z,16.32
2023-07-23T03:25:02.984Z,16.40
2023-07-23T03:27:29.536Z,16.54
2023-07-23T03:29:56.148Z,16.55
2023-07-23T03:32:22.852Z,16.85
2023-07-23T03:34:49.448Z,16.97
2023-07-23T03:37:16.393Z,17.02
2023-07-23T03:39:42.953Z,17.20
2023-07-23T03:42:09.595Z,17.31
2023-07-23T03:44:36.178Z,17.19
2023-07-23T03:47:10.860Z,17.21
2023-07-23T03:49:37.679Z,17.38
2023-07-23T03:52:05.731Z,17.53
2023-07-23T03:54:33.206Z,17.54
2023-07-23T03:56:59.886Z,17.61
2023-07-23T03:59:31.667Z,17.71
2023-07-23T04:01:58.243Z,17.90
2023-07-23T04:04:24.837Z,18.08
2023-07-23T04:06:51.638Z,18.15
2023-07-23T04:09:19.043Z,18.26
2023-07-23T04:11:45.761Z,18.46
2023-07-23T04:14:12.521Z,18.59
2023-07-23T04:16:39.446Z,18.66
2023-07-23T04:19:06.073Z,18.68
2023-07-23T04:21:32.657Z,18.84
2023-07-23T04:24:00.124Z,18.93
2023-07-23T04:26:28.517Z,19.03
2023-07-23T04:28:55.614Z,19.07
2023-07-23T04:31:22.251Z,19.18
2023-07-23T04:33:49.950Z,19.23
2023-07-23T04:36:16.830Z,19.22
2023-07-23T04:38:44.542Z,19.35
2023-07-23T04:41:12.043Z,19.45
2023-07-23T04:43:39.809Z,19.50
2023-07-23T04:46:06.521Z,19.52
2023-07-23T04:48:34.292Z,19.55
2023-07-23T04:51:03.609Z,19.68
2023-07-23T04:53:30.472Z,19.83
2023-07-23T04:55:58.157Z,19.92
2023-07-23T04:58:26.597Z,20.16
2023-07-23T05:00:53.814Z,20.13
2023-07-23T05:03:21.020Z,20.21
2023-07-23T05:05:50.596Z,20.16
2023-07-23T05:08:20.781Z,20.10
2023-07-23T05:10:48.317Z,20.17
2023-07-23T05:13:15.897Z,20.30
2023-07-23T05:15:42.744Z,20.21
2023-07-23T05:18:09.842Z,20.02
2023-07-23T05:20:36.571Z,20.49
2023-07-23T05:23:03.190Z,20.37
2023-07-23T05:25:29.722Z,20.67
2023-07-23T05:27:56.337Z,20.78
2023-07-23T05:30:23.213Z,20.87
2023-07-23T05:32:50.078Z,20.82
2023-07-23T05:35:16.833Z,20.83
2023-07-23T05:37:43.439Z,20.89
2023-07-23T05:40:10.209Z,20.87
2023-07-23T05:42:36.843Z,21.01
2023-07-23T05:45:04.382Z,21.03
2023-07-23T05:47:31.171Z,21.20
2023-07-23T05:49:58.018Z,21.22
2023-07-23T05:52:25.335Z,21.52
2023-07-23T05:54:52.045Z,21.69
2023-07-23T05:57:18.702Z,21.99
2023-07-23T05:59:45.299Z,22.18
2023-07-23T06:02:12.031Z,22.37
2023-07-23T06:04:40.596Z,22.56
2023-07-23T06:07:07.362Z,22.60
2023-07-23T06:09:34.033Z,22.37
2023-07-23T06:12:00.684Z,22.44
2023-07-23T06:14:27.506Z,22.53
2023-07-23T06:16:54.616Z,22.54
2023-07-23T06:19:21.680Z,22.67
2023-07-23T06:21:48.252Z,22.35
2023-07-23T06:24:14.847Z,22.46
2023-07-23T06:26:41.784Z,22.51
2023-07-23T06:29:08.943Z,22.83
2023-07-23T06:31:35.564Z,23.08
2023-07-23T06:34:02.162Z,23.12
2023-07-23T06:36:28.745Z,23.10
2023-07-23T06:38:55.296Z,23.15
2023-07-23T06:41:21.928Z,23.22
2023-07-23T06:43:48.516Z,23.18
2023-07-23T06:46:19.169Z,23.42
2023-07-23T06:48:45.859Z,23.63
2023-07-23T06:51:12.553Z,23.83
2023-07-23T06:53:39.119Z,23.83
2023-07-23T06:56:08.070Z,23.88
2023-07-23T06:58:37.244Z,23.72
2023-07-23T07:01:05.209Z,23.94
2023-07-23T07:03:32.237Z,24.06
2023-07-23T07:06:00.553Z,23.99
2023-07-23T07:08:28.517Z,24.31
2023-07-23T07:11:03.196Z,24.65
2023-07-23T07:13:30.680Z,25.08
2023-07-23T07:15:57.875Z,25.37
2023-07-23T07:18:26.964Z,25.20
2023-07-23T07:21:00.993Z,25.53
2023-07-23T07:23:28.960Z,25.39
2023-07-23T07:25:56.930Z,25.59
2023-07-23T07:28:25.582Z,25.62
2023-07-23T07:30:52.337Z,25.33
2023-07-23T07:33:18.985Z,25.29
2023-07-23T07:35:45.645Z,25.26
2023-07-23T07:38:12.215Z,25.04
2023-07-23T07:40:41.657Z,25.00
2023-07-23T07:43:08.292Z,24.77
2023-07-23T07:45:34.948Z,24.49
2023-07-23T07:48:01.621Z,24.38
2023-07-23T07:50:28.300Z,24.29
2023-07-23T07:52:54.864Z,24.30
2023-07-23T07:55:21.411Z,24.33
2023-07-23T07:57:48.256Z,24.21
2023-07-23T08:00:15.525Z,23.88
2023-07-23T08:02:42.450Z,23.82
2023-07-23T08:05:09.979Z,23.77
2023-07-23T08:07:36.967Z,23.73
2023-07-23T08:10:03.942Z,23.78
2023-07-23T08:12:31.272Z,23.79
2023-07-23T08:14:59.580Z,23.81
2023-07-23T08:17:26.425Z,23.69
2023-07-23T08:19:53.270Z,23.61
2023-07-23T08:22:20.013Z,23.61
2023-07-23T08:24:47.105Z,23.61
2023-07-23T08:27:18.492Z,23.64
2023-07-23T08:29:48.219Z,23.67
2023-07-23T08:32:18.207Z,23.71
2023-07-23T08:34:45.304Z,23.78
2023-07-23T08:37:12.713Z,24.04
2023-07-23T08:39:39.523Z,24.11
2023-07-23T08:42:33.911Z,24.03
2023-07-23T08:45:19.110Z,24.06
2023-07-23T08:47:48.539Z,24.24
2023-07-23T08:50:15.580Z,24.41
2023-07-23T08:52:44.372Z,24.36
2023-07-23T08:55:11.721Z,24.42
2023-07-23T08:57:39.673Z,24.63
2023-07-23T09:00:08.258Z,24.82
2023-07-23T09:02:35.542Z,25.06
2023-07-23T09:05:02.235Z,25.11
2023-07-23T09:07:29.029Z,25.18
2023-07-23T09:09:56.155Z,25.04
2023-07-23T09:12:22.817Z,25.16
2023-07-23T09:14:49.432Z,25.13
2023-07-23T09:17:20.770Z,25.13
2023-07-23T09:19:49.080Z,25.24
2023-07-23T09:22:18.422Z,25.32
2023-07-23T09:24:45.073Z,25.27
2023-07-23T09:27:12.420Z,25.21
2023-07-23T09:29:42.117Z,25.16
2023-07-23T09:32:29.077Z,25.33
2023-07-23T09:35:00.346Z,25.59
2023-07-23T09:37:30.142Z,25.60
2023-07-23T09:39:57.813Z,25.72
2023-07-23T09:42:25.196Z,25.95
2023-07-23T09:44:52.964Z,26.28
2023-07-23T09:47:26.725Z,26.09
2023-07-23T09:49:54.378Z,25.84
2023-07-23T09:52:27.460Z,25.76
2023-07-23T09:54:54.915Z,26.01
2023-07-23T09:57:23.039Z,26.27
2023-07-23T09:59:50.653Z,26.39
2023-07-23T10:02:18.525Z,26.28
2023-07-23T10:04:46.804Z,26.29
2023-07-23T10:07:15.240Z,26.27
2023-07-23T10:09:42.370Z,26.41
2023-07-23T10:12:09.238Z,26.51
2023-07-23T10:14:35.898Z,26.47
2023-07-23T10:17:03.560Z,26.35
2023-07-23T10:19:30.368Z,26.35
2023-07-23T10:21:57.449Z,26.37
2023-07-23T10:24:37.994Z,26.41
2023-07-23T10:27:11.324Z,26.44
2023-07-23T10:29:38.390Z,26.49
2023-07-23T10:32:28.007Z,26.52
2023-07-23T10:34:58.573Z,26.69
2023-07-23T10:37:25.787Z,26.65
2023-07-23T10:39:56.930Z,26.63
2023-07-23T10:42:29.672Z,26.95
2023-07-23T10:45:23.798Z,27.29
2023-07-23T10:47:52.627Z,27.66
2023-07-23T10:50:21.128Z,27.56
2023-07-23T10:52:51.037Z,27.88
2023-07-23T10:55:36.047Z,27.86
2023-07-23T10:58:11.548Z,27.64
2023-07-23T11:00:49.072Z,27.86
2023-07-23T11:03:18.258Z,27.84
2023-07-23T11:05:45.880Z,27.65
2023-07-23T11:08:25.008Z,27.77
2023-07-23T11:11:01.015Z,27.63
2023-07-23T11:13:33.588Z,27.67
2023-07-23T11:16:00.978Z,27.84
2023-07-23T11:18:32.153Z,27.84
2023-07-23T11:21:01.057Z,28.04
2023-07-23T11:23:28.986Z,28.14
2023-07-23T11:25:57.179Z,28.42
2023-07-23T11:28:24.212Z,28.81
2023-07-23T11:30:53.353Z,28.32
2023-07-23T11:33:21.493Z,28.39
2023-07-23T11:35:49.999Z,28.52
2023-07-23T11:38:16.605Z,28.60
2023-07-23T11:40:51.435Z,28.46
2023-07-23T11:43:18.088Z,28.54
2023-07-23T11:45:50.483Z,28.19
2023-07-23T11:48:18.789Z,28.42
2023-07-23T11:50:49.063Z,28.51
2023-07-23T11:53:31.886Z,28.89
2023-07-23T11:56:15.273Z,29.09
2023-07-23T11:58:42.589Z,29.24
2023-07-23T12:01:10.669Z,28.62
2023-07-23T12:03:43.174Z,28.42
2023-07-23T12:06:12.623Z,28.61
2023-07-23T12:08:39.896Z,29.07
2023-07-23T12:11:14.152Z,28.95
2023-07-23T12:13:57.290Z,28.90
2023-07-23T12:16:43.249Z,29.03
2023-07-23T12:19:11.394Z,28.79
2023-07-23T12:21:42.507Z,28.57
2023-07-23T12:24:21.860Z,28.15
2023-07-23T12:26:56.201Z,28.62
2023-07-23T12:29:24.836Z,28.42
2023-07-23T12:32:10.487Z,28.58
2023-07-23T12:34:38.979Z,28.43
2023-07-23T12:37:06.197Z,28.67
2023-07-23T12:39:33.044Z,28.80
2023-07-23T12:42:00.084Z,28.78
2023-07-23T12:44:27.348Z,28.55
2023-07-23T12:46:55.032Z,29.07
2023-07-23T12:49:21.799Z,29.11
2023-07-23T12:51:48.581Z,29.33
2023-07-23T12:54:15.191Z,29.46
2023-07-23T12:56:42.322Z,29.67
2023-07-23T12:59:09.081Z,29.15
2023-07-23T13:01:36.573Z,29.13
2023-07-23T13:04:03.437Z,29.22
2023-07-23T13:06:31.631Z,29.31
2023-07-23T13:08:59.141Z,29.13
2023-07-23T13:11:25.666Z,29.03
2023-07-23T13:13:52.305Z,28.96
2023-07-23T13:16:21.533Z,29.11
2023-07-23T13:18:48.164Z,29.20
2023-07-23T13:21:15.073Z,29.12
2023-07-23T13:23:42.222Z,29.03
2023-07-23T13:26:09.188Z,29.02
2023-07-23T13:28:35.742Z,29.09
2023-07-23T13:31:02.593Z,29.34
2023-07-23T13:33:29.189Z,29.88
2023-07-23T13:35:55.772Z,30.18
2023-07-23T13:38:23.302Z,30.62
2023-07-23T13:40:50.470Z,30.97
2023-07-23T13:43:17.049Z,31.26
2023-07-23T13:45:44.656Z,30.34
2023-07-23T13:48:11.250Z,30.84
2023-07-23T13:50:49.658Z,30.65
2023-07-23T13:53:18.779Z,30.36
2023-07-23T13:55:46.009Z,30.34
2023-07-23T13:58:13.712Z,30.10
2023-07-23T14:00:44.709Z,29.81
2023-07-23T14:03:11.549Z,29.16
2023-07-23T14:05:38.317Z,29.36
2023-07-23T14:08:10.644Z,29.29
2023-07-23T14:10:38.307Z,29.55
2023-07-23T14:13:05.894Z,29.38
2023-07-23T14:15:32.761Z,29.68
2023-07-23T14:18:01.507Z,29.46
2023-07-23T14:20:28.557Z,29.47
2023-07-23T14:22:55.135Z,29.35
2023-07-23T14:25:21.836Z,28.90
2023-07-23T14:27:48.922Z,28.69
2023-07-23T14:30:17.965Z,28.70
2023-07-23T14:32:44.563Z,28.75
2023-07-23T14:35:11.163Z,28.70
2023-07-23T14:37:37.713Z,28.69
2023-07-23T14:40:06.144Z,28.72
2023-07-23T14:42:32.820Z,28.79
2023-07-23T14:44:59.447Z,28.60
2023-07-23T14:47:26.076Z,28.41
2023-07-23T14:49:52.680Z,28.29
2023-07-23T14:52:19.350Z,28.23
2023-07-23T14:54:45.913Z,28.22
2023-07-23T14:57:12.487Z,28.07
2023-07-23T14:59:39.080Z,28.00
2023-07-23T15:02:06.711Z,27.91
2023-07-23T15:04:33.378Z,28.04
2023-07-23T15:07:00.057Z,27.98
2023-07-23T15:09:27.134Z,28.00
2023-07-23T15:11:53.987Z,27.84
2023-07-23T15:14:20.801Z,27.98
2023-07-23T15:16:47.706Z,27.82
2023-07-23T15:19:14.534Z,27.68
2023-07-23T15:21:41.404Z,27.75
2023-07-23T15:24:09.635Z,27.66
2023-07-23T15:26:39.214Z,27.52
2023-07-23T15:29:07.166Z,27.41
2023-07-23T15:31:35.033Z,27.27
2023-07-23T15:34:02.458Z,27.28
2023-07-23T15:36:29.153Z,27.18
2023-07-23T15:38:55.741Z,27.09
2023-07-23T15:41:22.317Z,27.10
2023-07-23T15:43:49.081Z,26.97
2023-07-23T15:46:15.675Z,27.00
2023-07-23T15:48:42.382Z,27.00
2023-07-23T15:51:08.964Z,26.50
2023-07-23T15:53:35.614Z,26.46
2023-07-23T15:56:02.250Z,26.17
2023-07-23T15:58:29.190Z,25.77
2023-07-23T16:00:56.222Z,25.68
2023-07-23T16:03:23.185Z,25.67
2023-07-23T16:05:49.911Z,25.59
2023-07-23T16:08:16.531Z,25.57
2023-07-23T16:10:43.111Z,25.32
2023-07-23T16:13:09.718Z,25.18
2023-07-23T16:15:36.915Z,25.11
2023-07-23T16:18:04.661Z,25.13
2023-07-23T16:20:31.513Z,25.12
2023-07-23T16:22:58.129Z,25.09
2023-07-23T16:25:24.977Z,25.12
2023-07-23T16:27:51.655Z,25.11
2023-07-23T16:30:18.300Z,25.12
2023-07-23T16:32:45.126Z,25.14
2023-07-23T16:35:12.516Z,25.15
2023-07-23T16:37:42.061Z,25.16
2023-07-23T16:40:11.623Z,25.10
2023-07-23T16:42:43.033Z,24.61
2023-07-23T16:45:11.174Z,24.62
2023-07-23T16:47:37.830Z,24.63
2023-07-23T16:50:06.240Z,24.80
2023-07-23T16:52:32.812Z,24.87
2023-07-23T16:54:59.570Z,24.77
2023-07-23T16:57:26.586Z,24.64
2023-07-23T16:59:53.334Z,24.55
2023-07-23T17:02:20.049Z,24.55
2023-07-23T17:04:46.807Z,24.55
2023-07-23T17:07:13.557Z,24.50
2023-07-23T17:09:40.528Z,24.49
2023-07-23T17:12:07.494Z,24.45
2023-07-23T17:14:34.279Z,24.43
2023-07-23T17:17:02.926Z,24.51
2023-07-23T17:19:29.556Z,24.37
2023-07-23T17:21:56.302Z,24.44
2023-07-23T17:24:23.071Z,24.54
2023-07-23T17:26:49.767Z,24.49
2023-07-23T17:29:16.371Z,24.42
2023-07-23T17:31:42.969Z,24.37
2023-07-23T17:34:09.645Z,24.17
2023-07-23T17:36:36.381Z,24.34
2023-07-23T17:39:03.021Z,24.30
2023-07-23T17:41:29.587Z,24.30
2023-07-23T17:43:56.145Z,24.38
2023-07-23T17:46:22.978Z,24.31
2023-07-23T17:48:49.778Z,24.30
2023-07-23T17:51:16.508Z,24.26
2023-07-23T17:53:43.132Z,24.30
2023-07-23T17:56:09.754Z,24.28
2023-07-23T17:58:36.358Z,24.14
2023-07-23T18:01:09.714Z,24.06
2023-07-23T18:03:39.405Z,24.18
2023-07-23T18:06:06.031Z,24.17
2023-07-23T18:08:32.804Z,24.19
2023-07-23T18:10:59.414Z,24.09
2023-07-23T18:13:27.736Z,24.20
2023-07-23T18:15:54.575Z,24.20
2023-07-23T18:18:21.184Z,24.12
2023-07-23T18:20:47.778Z,24.18
2023-07-23T18:23:14.412Z,24.13
2023-07-23T18:25:54.298Z,24.15
2023-07-23T18:28:25.756Z,24.10
2023-07-23T18:31:02.063Z,24.14
2023-07-23T18:33:28.713Z,24.17
2023-07-23T18:35:55.395Z,24.14
2023-07-23T18:38:22.115Z,24.14
2023-07-23T18:40:58.625Z,23.98
2023-07-23T18:43:25.278Z,23.82
2023-07-23T18:45:52.429Z,23.87
2023-07-23T18:48:19.115Z,23.63
2023-07-23T18:50:45.817Z,23.62
2023-07-23T18:53:12.595Z,23.59
2023-07-23T18:55:39.291Z,23.40
2023-07-23T18:58:05.950Z,23.04
2023-07-23T19:00:36.057Z,22.76
2023-07-23T19:03:04.603Z,22.66
2023-07-23T19:05:31.483Z,22.54
2023-07-23T19:07:58.112Z,22.46
2023-07-23T19:10:24.818Z,22.38
2023-07-23T19:12:51.524Z,22.37
2023-07-23T19:15:18.228Z,22.55
2023-07-23T19:17:45.058Z,22.45
2023-07-23T19:20:11.816Z,22.60
2023-07-23T19:22:38.877Z,22.41
2023-07-23T19:25:05.833Z,22.28
2023-07-23T19:27:32.883Z,22.28
2023-07-23T19:29:59.584Z,22.21
2023-07-23T19:32:26.374Z,21.95
2023-07-23T19:34:52.980Z,21.81
2023-07-23T19:37:20.339Z,21.62
2023-07-23T19:39:47.999Z,21.48
2023-07-23T19:42:15.059Z,21.38
2023-07-23T19:44:42.705Z,21.39
2023-07-23T19:47:10.429Z,21.26
2023-07-23T19:49:37.321Z,21.22
2023-07-23T19:52:04.187Z,20.99
2023-07-23T19:54:30.814Z,20.90
2023-07-23T19:56:57.578Z,20.82
2023-07-23T19:59:25.995Z,20.61
2023-07-23T20:01:53.130Z,20.65
2023-07-23T20:04:20.232Z,20.58
2023-07-23T20:06:47.241Z,20.36
2023-07-23T20:09:13.888Z,20.35
2023-07-23T20:11:40.541Z,20.23
2023-07-23T20:14:07.176Z,20.33
2023-07-23T20:16:34.289Z,20.33
2023-07-23T20:19:01.235Z,20.18
2023-07-23T20:21:41.726Z,20.44
2023-07-23T20:24:13.670Z,20.16
2023-07-23T20:26:40.409Z,20.15
2023-07-23T20:29:07.222Z,19.91
2023-07-23T20:31:34.202Z,19.78
2023-07-23T20:34:01.078Z,19.76
2023-07-23T20:36:28.282Z,19.61
2023-07-23T20:38:55.522Z,19.66
2023-07-23T20:41:22.625Z,19.65
2023-07-23T20:43:49.351Z,19.55
2023-07-23T20:46:16.178Z,19.42
2023-07-23T20:48:43.538Z,19.57
2023-07-23T20:51:10.276Z,19.47
2023-07-23T20:53:36.931Z,19.37
2023-07-23T20:56:03.613Z,19.25
2023-07-23T20:58:30.248Z,19.17
2023-07-23T21:00:57.355Z,19.07
2023-07-23T21:03:24.092Z,19.17
2023-07-23T21:05:50.747Z,19.37
2023-07-23T21:08:17.331Z,19.46
2023-07-23T21:10:43.892Z,19.37
2023-07-23T21:13:10.951Z,19.25
2023-07-23T21:15:37.688Z,19.19
2023-07-23T21:18:04.339Z,19.29
2023-07-23T21:20:31.080Z,19.35
2023-07-23T21:22:57.665Z,19.49
2023-07-23T21:25:24.319Z,19.43
2023-07-23T21:27:50.959Z,19.48
2023-07-23T21:30:17.621Z,19.65
2023-07-23T21:32:44.466Z,19.66
2023-07-23T21:35:13.265Z,19.64
2023-07-23T21:37:40.181Z,19.65
2023-07-23T21:40:07.730Z,19.70
2023-07-23T21:42:34.389Z,19.86
2023-07-23T21:45:01.008Z,19.72
2023-07-23T21:47:27.863Z,19.74
2023-07-23T21:49:55.213Z,19.87
2023-07-23T21:52:22.681Z,19.98
2023-07-23T21:54:49.393Z,20.06
2023-07-23T21:57:16.229Z,20.07
2023-07-23T21:59:43.106Z,20.23
2023-07-23T22:02:09.801Z,20.19
2023-07-23T22:04:37.933Z,20.16
2023-07-23T22:07:04.920Z,20.02
2023-07-23T22:09:31.671Z,20.04
2023-07-23T22:11:58.271Z,20.03
2023-07-23T22:14:28.241Z,19.77
2023-07-23T22:16:55.168Z,19.77
2023-07-23T22:19:21.869Z,19.94
2023-07-23T22:21:48.618Z,19.78
2023-07-23T22:24:15.236Z,19.74
2023-07-23T22:26:41.875Z,19.65
2023-07-23T22:29:08.482Z,19.71
2023-07-23T22:31:35.134Z,19.89
2023-07-23T22:34:02.284Z,19.84
2023-07-23T22:36:29.269Z,19.80
2023-07-23T22:38:56.183Z,19.83
2023-07-23T22:41:22.828Z,19.99
2023-07-23T22:43:55.960Z,19.94
2023-07-23T22:46:25.329Z,19.83
2023-07-23T22:48:52.428Z,19.85
2023-07-23T22:51:19.059Z,19.81
2023-07-23T22:53:45.601Z,19.71
2023-07-23T22:56:16.965Z,19.75
2023-07-23T22:58:50.059Z,19.87
2023-07-23T23:01:18.651Z,19.86
2023-07-23T23:03:45.283Z,19.99
2023-07-23T23:06:11.882Z,20.20
2023-07-23T23:08:38.475Z,20.26
2023-07-23T23:11:05.386Z,20.38
2023-07-23T23:13:31.963Z,20.36
2023-07-23T23:16:02.247Z,20.55
2023-07-23T23:18:28.990Z,20.69
2023-07-23T23:20:55.646Z,20.82
2023-07-23T23:23:22.311Z,21.03
2023-07-23T23:25:48.893Z,21.14
2023-07-23T23:28:15.493Z,21.23
2023-07-23T23:30:42.062Z,21.33
2023-07-23T23:33:08.760Z,21.31
2023-07-23T23:35:35.486Z,21.30
2023-07-23T23:38:02.075Z,21.25
2023-07-23T23:40:28.688Z,21.08
2023-07-23T23:42:55.354Z,20.97
2023-07-23T23:45:24.307Z,20.86
2023-07-23T23:47:51.165Z,20.83
2023-07-23T23:50:17.923Z,20.78
2023-07-23T23:52:45.697Z,20.89
2023-07-23T23:55:12.282Z,20.69
2023-07-23T23:57:38.841Z,20.70
